Time;durP1;ratioP1;P1;durP2;ratioP2;P2;SDS_P1;SDS_P2;PMS_P1;PMS_P2;Temp;Humidity;BMP_temperature;BMP_pressure;BME280_temperature;BME280_humidity;BME280_pressure;Samples;Min_cycle;Max_cycle;Signal;HPM_P1;HPM_P2
2021/11/09 00:01:10;;;;;;;1999.90;999.90;;;;;;;9.96;100.00;96016.81;5050540;28;20829;-68
2021/11/09 00:03:44;;;;;;;1999.90;999.90;;;;;;;9.97;100.00;96020.94;5050373;28;20646;-68
2021/11/09 00:06:18;;;;;;;1999.90;999.90;;;;;;;9.95;100.00;96036.81;5050497;28;20258;-68
2021/11/09 00:08:50;;;;;;;1999.90;999.90;;;;;;;9.92;100.00;96039.94;5050229;28;20216;-68
2021/11/09 00:11:17;;;;;;;1999.90;999.90;;;;;;;9.95;100.00;96023.84;5050365;28;20189;-68
2021/11/09 00:13:46;;;;;;;1999.90;999.90;;;;;;;9.88;100.00;96023.38;5050416;28;20255;-68
2021/11/09 00:16:13;;;;;;;1999.90;999.90;;;;;;;9.77;100.00;96027.88;5050402;28;20664;-68
2021/11/09 00:18:45;;;;;;;1999.90;999.90;;;;;;;9.91;100.00;96033.22;5050216;28;20621;-68
2021/11/09 00:21:12;;;;;;;1999.90;999.90;;;;;;;9.96;100.00;96033.19;5050133;28;20228;-68
2021/11/09 00:23:39;;;;;;;1999.90;999.90;;;;;;;9.91;100.00;96022.84;5050442;28;20205;-68
2021/11/09 00:26:07;;;;;;;1999.90;999.90;;;;;;;9.88;100.00;96031.16;5050079;28;20196;-68
2021/11/09 00:28:34;;;;;;;1999.90;999.90;;;;;;;9.91;100.00;96025.44;5049867;28;20312;-68
2021/11/09 00:31:03;;;;;;;1999.90;999.90;;;;;;;9.93;100.00;96020.72;5050355;28;20247;-68
2021/11/09 00:33:30;;;;;;;1999.90;999.90;;;;;;;9.87;100.00;96014.03;5050267;28;20732;-68
2021/11/09 00:35:57;;;;;;;1999.90;999.90;;;;;;;9.90;100.00;95995.34;5050170;28;20699;-68
2021/11/09 00:38:24;;;;;;;1999.90;999.90;;;;;;;9.90;100.00;95982.34;5050064;28;20209;-68
2021/11/09 00:40:51;;;;;;;1999.90;999.90;;;;;;;9.92;100.00;95993.22;5049858;28;20213;-68
2021/11/09 00:43:19;;;;;;;1999.90;999.90;;;;;;;9.92;100.00;95998.41;5049470;28;20754;-68
2021/11/09 00:45:47;;;;;;;1999.90;999.90;;;;;;;9.85;100.00;96010.97;5049906;28;20197;-68
2021/11/09 00:48:16;;;;;;;1999.90;999.90;;;;;;;9.80;100.00;96016.19;5049936;28;20201;-68
2021/11/09 00:50:46;;;;;;;1999.90;999.90;;;;;;;9.82;100.00;96014.88;5049724;28;20259;-68
2021/11/09 00:53:14;;;;;;;1999.90;999.90;;;;;;;9.82;100.00;96019.28;5049861;28;20199;-68
2021/11/09 00:55:42;;;;;;;1999.90;999.90;;;;;;;9.77;100.00;96021.91;5050004;28;20241;-68
2021/11/09 00:58:09;;;;;;;1999.90;999.90;;;;;;;9.77;100.00;96009.72;5049629;28;20258;-68
2021/11/09 01:00:37;;;;;;;1999.90;999.90;;;;;;;9.80;100.00;96000.63;5049943;28;20231;-68
2021/11/09 01:03:07;;;;;;;1999.90;999.90;;;;;;;9.78;100.00;95990.50;5049538;28;20205;-68
2021/11/09 01:05:36;;;;;;;1999.90;999.90;;;;;;;9.86;100.00;95992.50;5048297;28;20257;-68
2021/11/09 01:08:06;;;;;;;1999.90;999.90;;;;;;;9.66;100.00;96004.94;5049639;28;20220;-68
2021/11/09 01:10:37;;;;;;;1999.90;999.90;;;;;;;9.61;100.00;96010.16;5049110;28;20209;-68
2021/11/09 01:13:05;;;;;;;1999.90;999.90;;;;;;;9.59;100.00;96009.66;5049894;28;20267;-68
2021/11/09 01:15:33;;;;;;;1999.90;999.90;;;;;;;9.67;100.00;96011.63;5049470;28;20209;-68
2021/11/09 01:18:02;;;;;;;1999.90;999.90;;;;;;;9.52;100.00;96009.97;5049443;28;20345;-68
2021/11/09 01:20:29;;;;;;;1999.90;999.90;;;;;;;9.38;100.00;96009.81;5049766;28;20201;-68
2021/11/09 01:22:59;;;;;;;1999.90;999.90;;;;;;;9.17;100.00;96005.84;5049742;28;20193;-68
2021/11/09 01:25:27;;;;;;;1999.90;999.90;;;;;;;9.09;100.00;96006.44;5049890;28;20205;-68
2021/11/09 01:27:55;;;;;;;1999.90;999.90;;;;;;;9.02;100.00;96017.09;5049427;28;20197;-68
2021/11/09 01:30:22;;;;;;;1999.90;999.90;;;;;;;8.98;100.00;96012.72;5049645;28;20225;-67
2021/11/09 01:32:50;;;;;;;1999.90;999.90;;;;;;;8.93;100.00;96012.75;5049342;28;20275;-68
2021/11/09 01:35:19;;;;;;;1999.90;999.90;;;;;;;8.80;100.00;96018.56;5049275;28;20771;-68
2021/11/09 01:37:46;;;;;;;1999.90;999.90;;;;;;;8.66;100.00;96033.16;5049372;28;20233;-67
2021/11/09 01:40:15;;;;;;;1999.90;999.90;;;;;;;8.68;100.00;96044.00;5053153;28;20250;-68
2021/11/09 01:42:43;;;;;;;1999.90;999.90;;;;;;;8.81;100.00;96051.19;5052873;28;20688;-68
2021/11/09 01:45:11;;;;;;;1999.90;999.90;;;;;;;8.88;100.00;96056.84;5052869;28;20673;-68
2021/11/09 01:47:40;;;;;;;1999.90;999.90;;;;;;;8.88;100.00;96051.66;5052915;28;20739;-68
2021/11/09 01:50:09;;;;;;;1999.90;999.90;;;;;;;8.89;100.00;96059.19;5052642;28;20775;-68
2021/11/09 01:52:37;;;;;;;1999.90;999.90;;;;;;;8.77;100.00;96052.75;5052729;28;20208;-68
2021/11/09 01:55:07;;;;;;;1999.90;999.90;;;;;;;8.86;100.00;96056.34;5052711;28;20568;-68
2021/11/09 01:57:36;;;;;;;1999.90;999.90;;;;;;;8.92;100.00;96055.25;5053202;28;20209;-68
2021/11/09 02:00:04;;;;;;;1999.90;999.90;;;;;;;8.97;100.00;96061.19;5052833;28;20271;-68
2021/11/09 02:02:31;;;;;;;1999.90;999.90;;;;;;;9.00;100.00;96063.25;5052876;28;20578;-68
2021/11/09 02:04:58;;;;;;;1999.90;999.90;;;;;;;8.95;100.00;96067.69;5052370;28;20237;-68
2021/11/09 02:07:26;;;;;;;1999.90;999.90;;;;;;;8.99;100.00;96069.50;5052598;28;20251;-68
2021/11/09 02:09:54;;;;;;;1999.90;999.90;;;;;;;9.00;100.00;96063.25;5052317;28;20787;-68
2021/11/09 02:12:21;;;;;;;1999.90;999.90;;;;;;;9.04;100.00;96069.47;5052463;28;20204;-67
2021/11/09 02:14:49;;;;;;;1999.90;999.90;;;;;;;9.03;100.00;96069.72;5052251;28;20193;-67
2021/11/09 02:17:17;;;;;;;1999.90;999.90;;;;;;;9.08;100.00;96067.09;5052422;28;20259;-68
2021/11/09 02:19:44;;;;;;;1999.90;999.90;;;;;;;9.18;100.00;96072.22;5052345;28;20204;-68
2021/11/09 02:22:13;;;;;;;1999.90;999.90;;;;;;;9.17;100.00;96065.47;5052639;28;20201;-68
2021/11/09 02:24:40;;;;;;;1999.90;999.90;;;;;;;9.18;100.00;96056.66;5052315;28;20287;-68
2021/11/09 02:27:07;;;;;;;1999.90;999.90;;;;;;;9.14;100.00;96058.25;5052733;28;20200;-68
2021/11/09 02:29:36;;;;;;;1999.90;999.90;;;;;;;9.18;100.00;96054.06;5052455;28;20286;-68
2021/11/09 02:32:05;;;;;;;1999.90;999.90;;;;;;;9.16;100.00;96053.56;5052390;28;20227;-68
2021/11/09 02:34:32;;;;;;;1999.90;999.90;;;;;;;9.16;100.00;96061.34;5051967;28;20193;-68
2021/11/09 02:37:00;;;;;;;1999.90;999.90;;;;;;;9.16;100.00;96058.75;5052041;28;20235;-68
2021/11/09 02:39:28;;;;;;;1999.90;999.90;;;;;;;9.04;100.00;96064.28;5052006;28;20193;-67
2021/11/09 02:41:55;;;;;;;1999.90;999.90;;;;;;;9.02;100.00;96068.16;5052176;28;20604;-68
2021/11/09 02:44:26;;;;;;;1999.90;999.90;;;;;;;9.03;100.00;96073.09;5051673;28;20251;-68
2021/11/09 02:46:55;;;;;;;1999.90;999.90;;;;;;;9.02;100.00;96062.97;5032041;28;20186;-68
2021/11/09 02:49:24;;;;;;;1999.90;999.90;;;;;;;8.78;100.00;96067.25;5031477;28;20222;-68
2021/11/09 02:51:53;;;;;;;1999.90;999.90;;;;;;;8.70;100.00;96073.03;5031924;28;20287;-68
2021/11/09 02:54:25;;;;;;;1999.90;999.90;;;;;;;8.85;100.00;96078.91;5032020;28;20202;-68
2021/11/09 02:56:58;;;;;;;1999.90;999.90;;;;;;;8.93;100.00;96080.91;5031599;28;20214;-68
2021/11/09 02:59:41;;;;;;;1999.90;999.90;;;;;;;9.01;100.00;96082.97;5031507;28;20256;-68
2021/11/09 03:02:16;;;;;;;1999.90;999.90;;;;;;;9.02;100.00;96088.91;5031903;28;20182;-68
2021/11/09 03:04:58;;;;;;;1999.90;999.90;;;;;;;8.99;100.00;96087.63;5037037;28;20246;-68
2021/11/09 03:07:31;;;;;;;1999.90;999.90;;;;;;;8.88;100.00;96100.91;5051821;28;20193;-68
2021/11/09 03:10:02;;;;;;;1999.90;999.90;;;;;;;8.84;100.00;96102.47;5051567;28;20209;-68
2021/11/09 03:12:36;;;;;;;1999.90;999.90;;;;;;;8.88;100.00;96111.28;5051391;28;20687;-67
2021/11/09 03:15:04;;;;;;;1999.90;999.90;;;;;;;8.84;100.00;96113.63;5051523;28;20193;-68
2021/11/09 03:17:38;;;;;;;1999.90;999.90;;;;;;;8.74;100.00;96118.84;5051396;28;20209;-67
2021/11/09 03:20:09;;;;;;;1999.90;999.90;;;;;;;8.70;100.00;96111.88;5051110;28;20247;-68
2021/11/09 03:44:39;;;;;;;1999.90;999.90;;;;;;;8.30;100.00;96113.56;5050799;28;20231;-68
2021/11/09 03:47:08;;;;;;;1999.90;999.90;;;;;;;8.34;100.00;96114.59;5050881;28;20193;-68
2021/11/09 03:49:36;;;;;;;1999.90;999.90;;;;;;;8.34;100.00;96116.41;5050732;28;20304;-68
2021/11/09 03:52:10;;;;;;;1999.90;999.90;;;;;;;8.23;100.00;96121.56;5050504;28;20276;-68
2021/11/09 03:54:38;;;;;;;1999.90;999.90;;;;;;;8.24;100.00;96122.34;5050475;28;20223;-68
2021/11/09 03:57:09;;;;;;;1999.90;999.90;;;;;;;8.14;100.00;96119.78;5050720;28;20189;-67
2021/11/09 03:59:48;;;;;;;1999.90;999.90;;;;;;;8.19;100.00;96117.19;5050395;28;20186;-68
2021/11/09 04:02:22;;;;;;;1999.90;999.90;;;;;;;8.30;100.00;96118.75;5049915;28;20272;-68
2021/11/09 04:04:52;;;;;;;1999.90;999.90;;;;;;;8.22;100.00;96109.66;5050147;28;20238;-68
2021/11/09 04:07:24;;;;;;;1999.90;999.90;;;;;;;8.13;100.00;96118.22;5050360;28;20292;-68
2021/11/09 04:12:54;;;;;;;1999.90;999.90;;;;;;;8.12;100.00;96111.50;5008394;28;20210;-67
2021/11/09 04:15:31;;;;;;;1999.90;999.90;;;;;;;8.05;100.00;96098.06;5041803;28;20739;-67
2021/11/09 04:20:57;;;;;;;1999.90;999.90;;;;;;;7.94;100.00;96114.63;5039317;28;20692;-67
2021/11/09 04:23:46;;;;;;;1999.90;999.90;;;;;;;7.97;100.00;96101.19;5049928;28;20193;-67
2021/11/09 04:29:21;;;;;;;1999.90;999.90;;;;;;;7.77;100.00;96120.84;5108077;27;20544;-68
2021/11/09 04:53:52;;;;;;;1999.90;999.90;;;;;;;7.65;100.00;96133.28;5107568;28;20282;-68
2021/11/09 05:02:02;;;;;;;1999.90;999.90;;;;;;;7.65;100.00;96158.38;5107374;28;20651;-68
2021/11/09 05:10:01;;;;;;;1999.90;999.90;;;;;;;7.28;100.00;96174.06;5107199;28;20174;-68
2021/11/09 05:12:28;;;;;;;1999.90;999.90;;;;;;;7.23;100.00;96184.41;5107297;28;20191;-68
2021/11/09 05:14:55;;;;;;;1999.90;999.90;;;;;;;7.28;100.00;96189.56;5106736;28;20245;-68
2021/11/09 05:17:23;;;;;;;1999.90;999.90;;;;;;;7.30;100.00;96188.31;5107017;28;20286;-68
2021/11/09 05:19:50;;;;;;;1999.90;999.90;;;;;;;7.37;100.00;96185.50;5106921;28;20199;-68
2021/11/09 05:22:17;;;;;;;1999.90;999.90;;;;;;;7.38;100.00;96183.66;5106899;28;20187;-68
2021/11/09 05:24:45;;;;;;;1999.90;999.90;;;;;;;7.40;100.00;96186.78;5107081;28;20252;-68
2021/11/09 05:27:15;;;;;;;1999.90;999.90;;;;;;;7.50;100.00;96191.97;5106729;28;20663;-68
2021/11/09 05:29:42;;;;;;;1999.90;999.90;;;;;;;7.49;100.00;96211.88;5106661;28;20234;-68
2021/11/09 05:32:09;;;;;;;1999.90;999.90;;;;;;;7.53;100.00;96207.75;5106985;28;20218;-68
2021/11/09 05:34:38;;;;;;;1999.90;999.90;;;;;;;7.61;100.00;96204.66;5106560;28;20199;-68
2021/11/09 05:37:08;;;;;;;1999.90;999.90;;;;;;;7.70;100.00;96204.94;5106582;28;20195;-67
2021/11/09 05:39:43;;;;;;;1999.90;999.90;;;;;;;7.70;100.00;96202.34;5098119;28;20184;-68
2021/11/09 05:42:10;;;;;;;1999.90;999.90;;;;;;;7.73;100.00;96217.34;5092829;28;20278;-68
2021/11/09 05:44:37;;;;;;;1999.90;999.90;;;;;;;7.69;100.00;96235.19;5093108;28;20256;-68
2021/11/09 05:47:05;;;;;;;1999.90;999.90;;;;;;;7.74;100.00;96230.03;5092732;28;20679;-68
2021/11/09 05:49:32;;;;;;;1999.90;999.90;;;;;;;7.73;100.00;96223.28;5092794;28;20587;-67
2021/11/09 05:52:01;;;;;;;1999.90;999.90;;;;;;;7.73;100.00;96220.72;5093054;28;20268;-68
2021/11/09 05:54:28;;;;;;;1999.90;999.90;;;;;;;7.79;100.00;96226.66;5092972;28;20204;-68
2021/11/09 05:56:56;;;;;;;1999.90;999.90;;;;;;;7.82;100.00;96225.38;5092890;28;20636;-68
2021/11/09 05:59:23;;;;;;;1999.90;999.90;;;;;;;8.04;100.00;96244.03;5092938;28;20886;-68
2021/11/09 06:01:50;;;;;;;1999.90;999.90;;;;;;;8.09;100.00;96241.44;5092511;28;20257;-68
2021/11/09 06:04:17;;;;;;;1999.90;999.90;;;;;;;8.20;100.00;96241.19;5092727;28;20254;-68
2021/11/09 06:06:45;;;;;;;1999.90;999.90;;;;;;;8.37;100.00;96243.53;5092745;28;20242;-68
2021/11/09 06:09:13;;;;;;;1999.90;999.90;;;;;;;8.49;100.00;96251.81;5092827;28;20220;-68
2021/11/09 06:11:40;;;;;;;1999.90;999.90;;;;;;;8.56;100.00;96262.72;5092351;28;20232;-68
2021/11/09 06:14:08;;;;;;;1999.90;999.90;;;;;;;8.60;100.00;96263.72;5092640;28;20282;-68
2021/11/09 06:16:35;;;;;;;1999.90;999.90;;;;;;;8.71;100.00;96274.09;5092309;28;20200;-68
2021/11/09 06:19:02;;;;;;;1999.90;999.90;;;;;;;8.68;100.00;96270.19;5092385;28;20278;-68
2021/11/09 06:21:29;;;;;;;1999.90;999.90;;;;;;;8.82;100.00;96281.56;5092275;28;20694;-68
2021/11/09 06:23:56;;;;;;;1999.90;999.90;;;;;;;8.90;100.00;96269.91;5092368;28;20240;-68
2021/11/09 06:26:25;;;;;;;1999.90;999.90;;;;;;;8.84;100.00;96250.22;5092359;28;20196;-68
2021/11/09 06:28:57;;;;;;;1999.90;999.90;;;;;;;8.97;100.00;96249.63;5091885;28;20280;-68
2021/11/09 06:31:24;;;;;;;1999.90;999.90;;;;;;;9.15;100.00;96259.44;5092278;28;20188;-68
2021/11/09 06:33:51;;;;;;;1999.90;999.90;;;;;;;9.29;100.00;96272.63;5092309;28;20253;-68
2021/11/09 06:36:19;;;;;;;1999.90;999.90;;;;;;;9.36;100.00;96286.09;5091884;28;20733;-68
2021/11/09 06:38:46;;;;;;;1999.90;999.90;;;;;;;9.32;100.00;96280.66;5092229;28;20253;-68
2021/11/09 06:41:13;;;;;;;1999.90;999.90;;;;;;;9.46;100.00;96286.06;5092033;28;20227;-68
2021/11/09 06:43:42;;;;;;;1999.90;999.90;;;;;;;9.46;100.00;96281.63;5091368;28;20444;-68
2021/11/09 06:46:09;;;;;;;1999.90;999.90;;;;;;;9.52;100.00;96262.41;5080131;28;20953;-68
2021/11/09 06:48:36;;;;;;;1999.90;999.90;;;;;;;9.52;100.00;96262.41;5091513;28;20223;-68
2021/11/09 06:51:04;;;;;;;1999.90;999.90;;;;;;;9.52;100.00;96277.97;5090938;28;20559;-68
2021/11/09 06:53:31;;;;;;;1999.90;999.90;;;;;;;9.65;100.00;96289.59;5091910;28;20203;-68
2021/11/09 06:55:58;;;;;;;1999.90;999.90;;;;;;;9.79;100.00;96297.56;5091657;28;20638;-68
2021/11/09 06:58:25;;;;;;;1999.90;999.90;;;;;;;9.86;100.00;96272.09;5091712;28;20223;-68
2021/11/09 07:00:53;;;;;;;1999.90;999.90;;;;;;;10.04;100.00;96278.47;5091679;28;20227;-67
2021/11/09 07:03:21;;;;;;;1999.90;999.90;;;;;;;10.05;100.00;96275.59;5091356;28;20204;-68
2021/11/09 07:05:48;;;;;;;1999.90;999.90;;;;;;;10.03;100.00;96277.69;5091368;28;20234;-68
2021/11/09 07:08:15;;;;;;;1999.90;999.90;;;;;;;10.13;100.00;96292.44;5091272;28;20259;-68
2021/11/09 07:10:43;;;;;;;1999.90;999.90;;;;;;;10.05;100.00;96296.38;5091480;28;20305;-68
2021/11/09 07:13:10;;;;;;;1999.90;999.90;;;;;;;10.13;100.00;96311.38;5091263;28;20195;-68
2021/11/09 07:15:38;;;;;;;1999.90;999.90;;;;;;;10.27;100.00;96301.19;5091389;28;20195;-68
2021/11/09 07:18:07;;;;;;;1999.90;999.90;;;;;;;10.27;100.00;96317.56;5091531;28;20257;-68
2021/11/09 07:20:36;;;;;;;1999.90;999.90;;;;;;;10.28;100.00;96332.09;5091048;28;20211;-68
2021/11/09 07:23:04;;;;;;;1999.90;999.90;;;;;;;10.35;100.00;96329.19;5091132;28;20686;-68
2021/11/09 07:25:32;;;;;;;1999.90;999.90;;;;;;;10.30;100.00;96324.81;5091040;28;20231;-68
2021/11/09 07:27:59;;;;;;;1999.90;999.90;;;;;;;10.36;100.00;96325.56;5090997;28;20235;-68
2021/11/09 07:30:30;;;;;;;1999.90;999.90;;;;;;;10.41;100.00;96338.50;5090922;28;20192;-68
2021/11/09 07:32:57;;;;;;;1999.90;999.90;;;;;;;10.40;100.00;96347.34;5091014;28;20215;-68
2021/11/09 07:35:27;;;;;;;1999.90;999.90;;;;;;;10.51;100.00;96354.00;5091185;28;20242;-68
2021/11/09 07:37:54;;;;;;;1999.90;999.90;;;;;;;10.36;100.00;96352.28;5091075;28;20207;-68
2021/11/09 07:40:23;;;;;;;1999.90;999.90;;;;;;;10.23;100.00;96367.72;5091106;28;20196;-68
2021/11/09 07:42:52;;;;;;;1999.90;999.90;;;;;;;10.18;100.00;96370.34;5091131;28;20574;-68
2021/11/09 07:45:21;;;;;;;1999.90;999.90;;;;;;;10.29;100.00;96375.22;5090726;28;20203;-67
2021/11/09 07:47:49;;;;;;;1999.90;999.90;;;;;;;10.39;100.00;96376.19;5090908;28;20207;-68
2021/11/09 07:50:16;;;;;;;1999.90;999.90;;;;;;;10.51;100.00;96385.19;5090600;28;20242;-68
2021/11/09 07:52:45;;;;;;;1999.90;999.90;;;;;;;10.68;100.00;96377.81;5090996;28;20961;-68
2021/11/09 07:55:17;;;;;;;1999.90;999.90;;;;;;;10.46;100.00;96387.06;5090552;28;20195;-67
2021/11/09 07:57:46;;;;;;;1999.90;999.90;;;;;;;10.54;100.00;96391.69;5090794;28;20188;-67
2021/11/09 08:00:25;;;;;;;1999.90;999.90;;;;;;;10.44;100.00;96391.75;5090467;28;20206;-68
2021/11/09 08:03:13;;;;;;;1999.90;999.90;;;;;;;10.55;100.00;96401.03;5090224;28;20263;-68
2021/11/09 08:05:58;;;;;;;1999.90;999.90;;;;;;;10.72;100.00;96424.81;5090388;28;20192;-68
2021/11/09 08:08:29;;;;;;;1999.90;999.90;;;;;;;10.71;100.00;96425.88;5090458;28;20214;-68
2021/11/09 08:10:56;;;;;;;1999.90;999.90;;;;;;;10.78;100.00;96418.56;5090434;28;20643;-68
2021/11/09 08:13:23;;;;;;;1999.90;999.90;;;;;;;10.98;100.00;96410.59;5090653;28;20192;-68
2021/11/09 08:15:50;;;;;;;1999.90;999.90;;;;;;;11.07;100.00;96408.19;5090726;28;20268;-68
2021/11/09 08:18:17;;;;;;;1999.90;999.90;;;;;;;11.23;99.27;96412.19;5090733;28;20192;-68
2021/11/09 08:20:44;;;;;;;1999.90;999.90;;;;;;;11.18;97.20;96431.25;5090591;28;20196;-68
2021/11/09 08:23:12;;;;;;;1999.90;999.90;;;;;;;11.35;98.11;96436.03;5090471;28;20242;-68
2021/11/09 08:25:41;;;;;;;1999.90;999.90;;;;;;;11.37;98.21;96448.75;5090487;28;20195;-68
2021/11/09 08:28:08;;;;;;;1999.90;999.90;;;;;;;11.14;97.33;96448.44;5089989;28;20231;-68
2021/11/09 08:30:35;;;;;;;1999.90;999.90;;;;;;;11.20;97.47;96444.75;5090462;28;20199;-68
2021/11/09 08:33:04;;;;;;;1999.90;999.90;;;;;;;11.25;96.50;96445.75;5090412;28;20324;-68
2021/11/09 08:35:31;;;;;;;1999.90;999.90;;;;;;;11.19;96.14;96455.44;5090422;28;20256;-68
2021/11/09 08:37:58;;;;;;;1999.90;999.90;;;;;;;11.02;97.56;96463.63;5090333;28;20279;-68
2021/11/09 08:40:25;;;;;;;1999.90;999.90;;;;;;;11.00;98.66;96468.34;5090341;28;20200;-68
2021/11/09 08:42:56;;;;;;;1999.90;999.90;;;;;;;11.18;97.87;96478.06;5089998;28;20200;-69
2021/11/09 08:45:32;;;;;;;1999.90;999.90;;;;;;;11.01;96.97;96467.25;5090506;28;20293;-68
2021/11/09 08:48:06;;;;;;;1999.90;999.90;;;;;;;11.02;97.83;96468.81;5090334;28;20622;-68
2021/11/09 08:50:33;;;;;;;1999.90;999.90;;;;;;;11.02;98.35;96473.25;5089531;28;20282;-68
2021/11/09 08:53:05;;;;;;;1999.90;999.90;;;;;;;11.07;97.76;96468.00;5090216;28;20211;-68
2021/11/09 08:55:42;;;;;;;1999.90;999.90;;;;;;;11.05;97.77;96463.09;5090213;28;20202;-68
2021/11/09 08:58:31;;;;;;;1999.90;999.90;;;;;;;11.17;96.69;96453.09;5089985;28;20195;-67
2021/11/09 09:06:28;;;;;;;1999.90;999.90;;;;;;;11.06;93.97;96475.03;5089787;28;20199;-68
2021/11/09 09:08:56;;;;;;;1999.90;999.90;;;;;;;10.64;95.32;96462.59;5090033;28;20269;-68
2021/11/09 09:11:23;;;;;;;1999.90;999.90;;;;;;;10.33;96.30;96461.97;5090022;28;20196;-68
2021/11/09 09:13:52;;;;;;;1999.90;999.90;;;;;;;10.38;96.41;96461.16;5090164;28;20294;-68
2021/11/09 09:16:20;;;;;;;1999.90;999.90;;;;;;;10.53;95.08;96465.50;5093757;28;20706;-68
2021/11/09 09:18:48;;;;;;;1999.90;999.90;;;;;;;10.49;95.48;96480.88;5093860;28;20232;-68
2021/11/09 09:21:20;;;;;;;1999.90;999.90;;;;;;;10.52;95.15;96482.13;5093342;28;20195;-68
2021/11/09 09:23:50;;;;;;;1999.90;999.90;;;;;;;10.56;94.61;96477.97;5093727;28;20238;-68
2021/11/09 09:26:27;;;;;;;1999.90;999.90;;;;;;;10.38;95.27;96474.16;5093693;28;20184;-68
2021/11/09 09:56:18;;;;;;;1999.90;999.90;;;;;;;10.14;96.93;96525.91;5058992;28;20195;-68
2021/11/09 09:58:45;;;;;;;1999.90;999.90;;;;;;;10.13;96.52;96529.56;5092684;28;20226;-68
2021/11/09 10:01:13;;;;;;;1999.90;999.90;;;;;;;10.21;96.71;96529.03;5093035;28;20208;-68
2021/11/09 10:03:43;;;;;;;1999.90;999.90;;;;;;;10.00;98.26;96539.72;5092608;28;20192;-68
2021/11/09 10:06:11;;;;;;;1999.90;999.90;;;;;;;9.89;99.40;96549.34;5092797;28;20195;-68
2021/11/09 10:08:45;;;;;;;1999.90;999.90;;;;;;;9.89;99.96;96554.53;5092753;28;20224;-68
2021/11/09 10:11:28;;;;;;;1999.90;999.90;;;;;;;9.78;100.00;96553.78;5092622;28;20188;-68
2021/11/09 10:13:55;;;;;;;1999.90;999.90;;;;;;;9.53;100.00;96556.38;5092488;28;20233;-68
2021/11/09 10:16:23;;;;;;;1999.90;999.90;;;;;;;9.47;100.00;96547.81;5092698;28;20687;-68
2021/11/09 10:18:50;;;;;;;1999.90;999.90;;;;;;;9.60;100.00;96558.72;5092446;28;20224;-68
2021/11/09 10:21:17;;;;;;;1999.90;999.90;;;;;;;9.63;100.00;96560.78;5092296;28;20683;-68
2021/11/09 10:23:45;;;;;;;1999.90;999.90;;;;;;;9.71;100.00;96562.88;5092237;28;20203;-68
2021/11/09 10:26:15;;;;;;;1999.90;999.90;;;;;;;9.63;100.00;96560.78;5092159;28;20762;-68
2021/11/09 10:28:43;;;;;;;1999.90;999.90;;;;;;;9.44;100.00;96568.31;5091955;28;20285;-68
2021/11/09 10:31:11;;;;;;;1999.90;999.90;;;;;;;9.31;100.00;96571.44;5092242;28;20207;-68
2021/11/09 10:33:42;;;;;;;1999.90;999.90;;;;;;;9.34;100.00;96571.69;5092307;28;20203;-69
2021/11/09 10:36:21;;;;;;;1999.90;999.90;;;;;;;9.29;100.00;96565.72;5092185;28;20184;-69
2021/11/09 10:38:49;;;;;;;1999.90;999.90;;;;;;;9.41;100.00;96579.22;5092184;28;20203;-69
2021/11/09 10:41:17;;;;;;;1999.90;999.90;;;;;;;9.25;100.00;96575.81;5091879;28;20192;-69
2021/11/09 10:43:45;;;;;;;1999.90;999.90;;;;;;;9.18;100.00;96567.50;5092137;28;20199;-69
2021/11/09 10:46:24;;;;;;;1999.90;999.90;;;;;;;9.13;100.00;96569.31;5091897;28;20781;-69
2021/11/09 10:48:53;;;;;;;1999.90;999.90;;;;;;;9.19;100.00;96566.47;5092089;28;20292;-69
2021/11/09 10:51:20;;;;;;;1999.90;999.90;;;;;;;9.15;100.00;96568.03;5092004;28;20228;-69
2021/11/09 10:53:52;;;;;;;1999.90;999.90;;;;;;;9.14;100.00;96574.25;5091686;28;20203;-69
2021/11/09 10:56:33;;;;;;;1999.90;999.90;;;;;;;9.16;100.00;96590.34;5091581;28;20689;-69
2021/11/09 10:59:17;;;;;;;1999.90;999.90;;;;;;;9.19;100.00;96607.97;5091629;28;20207;-69
2021/11/09 11:04:34;;;;;;;1999.90;999.90;;;;;;;8.86;100.00;96609.19;5091622;28;20205;-70
2021/11/09 11:07:03;;;;;;;1999.90;999.90;;;;;;;8.84;100.00;96606.06;5091588;28;20229;-70
2021/11/09 11:09:30;;;;;;;1999.90;999.90;;;;;;;8.77;100.00;96610.69;5091419;28;20223;-70
2021/11/09 11:11:59;;;;;;;1999.90;999.90;;;;;;;8.76;100.00;96621.34;5091625;28;20199;-69
2021/11/09 11:14:29;;;;;;;1999.90;999.90;;;;;;;8.64;100.00;96622.31;5091509;28;20192;-70
2021/11/09 11:16:59;;;;;;;1999.90;999.90;;;;;;;8.73;100.00;96624.41;5091275;28;20290;-71
2021/11/09 11:19:28;;;;;;;1999.90;999.90;;;;;;;8.51;100.00;96627.19;5091977;28;20258;-70
2021/11/09 11:21:57;;;;;;;1999.90;999.90;;;;;;;8.53;100.00;96638.06;5091297;28;20207;-70
2021/11/09 11:24:25;;;;;;;1999.90;999.90;;;;;;;8.65;100.00;96638.66;5091275;28;20196;-70
2021/11/09 11:26:54;;;;;;;1999.90;999.90;;;;;;;8.62;100.00;96645.09;5090916;28;20204;-70
2021/11/09 11:29:23;;;;;;;1999.90;999.90;;;;;;;8.50;100.00;96649.72;5091039;28;20207;-70
2021/11/09 11:31:52;;;;;;;1999.90;999.90;;;;;;;8.55;100.00;96657.50;5091039;28;20203;-69
2021/11/09 11:34:20;;;;;;;1999.90;999.90;;;;;;;8.49;100.00;96650.75;5091037;28;20668;-70
2021/11/09 11:36:48;;;;;;;1999.90;999.90;;;;;;;8.64;100.00;96657.81;5090718;28;20257;-70
2021/11/09 11:39:20;;;;;;;1999.90;999.90;;;;;;;8.77;100.00;96654.75;5090825;28;20587;-70
2021/11/09 11:41:52;;;;;;;1999.90;999.90;;;;;;;8.63;100.00;96657.03;5091166;28;20556;-69
2021/11/09 11:44:23;;;;;;;1999.90;999.90;;;;;;;8.77;100.00;96656.56;5091009;28;20261;-69
2021/11/09 11:46:55;;;;;;;1999.90;999.90;;;;;;;8.82;100.00;96670.31;5091025;28;20188;-70
2021/11/09 11:49:27;;;;;;;1999.90;999.90;;;;;;;8.87;100.00;96670.34;5090680;28;20299;-69
2021/11/09 11:52:14;;;;;;;1999.90;999.90;;;;;;;8.79;100.00;96670.06;5090957;28;20200;-70
2021/11/09 11:54:46;;;;;;;1999.90;999.90;;;;;;;8.82;100.00;96678.09;5090941;28;20191;-69
2021/11/09 11:57:32;;;;;;;1999.90;999.90;;;;;;;8.77;100.00;96680.66;5090597;28;20188;-70
2021/11/09 11:59:59;;;;;;;1999.90;999.90;;;;;;;8.77;100.00;96688.44;5090850;28;20183;-69
2021/11/09 12:02:36;;;;;;;1999.90;999.90;;;;;;;8.77;100.00;96698.03;5090481;28;20215;-69
2021/11/09 12:05:06;;;;;;;1999.90;999.90;;;;;;;8.71;100.00;96707.59;5090282;28;20191;-69
2021/11/09 12:07:54;;;;;;;1999.90;999.90;;;;;;;8.67;100.00;96710.97;5090659;28;20660;-69
2021/11/09 12:10:23;;;;;;;1999.90;999.90;;;;;;;8.68;100.00;96704.72;5090289;28;20277;-69
2021/11/09 12:13:02;;;;;;;1999.90;999.90;;;;;;;8.61;100.00;96717.91;5090734;28;20957;-69
2021/11/09 12:15:50;;;;;;;1999.90;999.90;;;;;;;8.37;100.00;96722.66;5090588;28;20279;-69
2021/11/09 12:18:44;;;;;;;1999.90;999.90;;;;;;;8.58;100.00;96731.34;5090192;28;20723;-69
2021/11/09 12:21:38;;;;;;;1999.90;999.90;;;;;;;8.50;100.00;96735.19;5080795;28;20208;-69
2021/11/09 12:24:19;;;;;;;1999.90;999.90;;;;;;;8.51;100.00;96731.59;5090143;28;20200;-69
2021/11/09 12:26:51;;;;;;;1999.90;999.90;;;;;;;8.64;100.00;96759.66;5090106;28;20186;-68
2021/11/09 12:29:43;;;;;;;1999.90;999.90;;;;;;;8.70;100.00;96759.69;5089976;28;20694;-69
2021/11/09 12:32:31;;;;;;;1999.90;999.90;;;;;;;8.60;100.00;96758.59;5090200;28;20679;-69
2021/11/09 12:35:01;;;;;;;1999.90;999.90;;;;;;;8.58;100.00;96763.22;5090385;28;20190;-69
2021/11/09 12:37:30;;;;;;;1999.90;999.90;;;;;;;8.58;100.00;96765.81;5090162;28;20184;-69
2021/11/09 12:40:28;;;;;;;1999.90;999.90;;;;;;;8.62;100.00;96766.88;5090319;28;20196;-69
2021/11/09 12:43:13;;;;;;;1999.90;999.90;;;;;;;8.63;100.00;96768.44;5089954;28;20184;-69
2021/11/09 12:45:43;;;;;;;1999.90;999.90;;;;;;;8.51;100.00;96778.22;5090056;28;20719;-70